sensor_id;sensor_type;location;lat;lon;timestamp;pressure;altitude;pressure_sealevel;temperature;humidity
35878;BME280;21982;49.804;24.072;2023-07-02T00:01:30;96322.34;;;22.10;72.32
35878;BME280;21982;49.804;24.072;2023-07-02T00:03:55;96288.81;;;21.87;72.20
35878;BME280;21982;49.804;24.072;2023-07-02T00:06:21;96302.78;;;21.94;72.29
35878;BME280;21982;49.804;24.072;2023-07-02T00:08:46;96341.16;;;22.15;72.42
35878;BME280;21982;49.804;24.072;2023-07-02T00:11:13;96331.19;;;22.16;72.30
35878;BME280;21982;49.804;24.072;2023-07-02T00:13:38;96261.00;;;21.68;71.99
35878;BME280;21982;49.804;24.072;2023-07-02T00:16:04;96334.69;;;22.16;nan
35878;BME280;21982;49.804;24.072;2023-07-02T00:18:30;96307.59;;;22.02;71.52
35878;BME280;21982;49.804;24.072;2023-07-02T00:21:00;96331.91;;;22.21;71.11
35878;BME280;21982;49.804;24.072;2023-07-02T00:23:28;96318.56;;;22.11;70.79
35878;BME280;21982;49.804;24.072;2023-07-02T00:25:53;96286.66;;;21.89;70.32
35878;BME280;21982;49.804;24.072;2023-07-02T00:28:19;96315.94;;;22.01;69.89
35878;BME280;21982;49.804;24.072;2023-07-02T00:30:44;96325.13;;;21.95;69.73
35878;BME280;21982;49.804;24.072;2023-07-02T00:33:10;96329.22;;;21.92;69.28
35878;BME280;21982;49.804;24.072;2023-07-02T00:35:35;96296.81;;;21.68;69.17
35878;BME280;21982;49.804;24.072;2023-07-02T00:38:00;96308.03;;;21.81;69.13
35878;BME280;21982;49.804;24.072;2023-07-02T00:40:27;96276.69;;;21.61;68.93
35878;BME280;21982;49.804;24.072;2023-07-02T00:42:55;96319.00;;;21.89;68.58
35878;BME280;21982;49.804;24.072;2023-07-02T00:45:22;96250.44;;;21.43;68.55
35878;BME280;21982;49.804;24.072;2023-07-02T00:47:48;96312.28;;;21.87;68.65
35878;BME280;21982;49.804;24.072;2023-07-02T00:50:14;96290.09;;;21.66;68.56
35878;BME280;21982;49.804;24.072;2023-07-02T00:52:39;96315.53;;;21.84;68.50
35878;BME280;21982;49.804;24.072;2023-07-02T00:55:05;96318.22;;;21.84;68.31
35878;BME280;21982;49.804;24.072;2023-07-02T00:57:31;96313.44;;;21.81;67.89
35878;BME280;21982;49.804;24.072;2023-07-02T00:59:58;96312.63;;;21.80;67.77
35878;BME280;21982;49.804;24.072;2023-07-02T01:02:25;96320.72;;;21.80;67.90
35878;BME280;21982;49.804;24.072;2023-07-02T01:04:55;96275.38;;;21.53;67.72
35878;BME280;21982;49.804;24.072;2023-07-02T01:07:23;96272.38;;;21.60;67.71
35878;BME280;21982;49.804;24.072;2023-07-02T01:09:49;96298.06;;;21.81;67.94
35878;BME280;21982;49.804;24.072;2023-07-02T01:12:17;96280.84;;;21.77;67.61
35878;BME280;21982;49.804;24.072;2023-07-02T01:14:48;96280.84;;;21.77;67.27
35878;BME280;21982;49.804;24.072;2023-07-02T01:17:15;96302.66;;;21.81;67.12
35878;BME280;21982;49.804;24.072;2023-07-02T01:19:49;96295.69;;;21.74;67.04
35878;BME280;21982;49.804;24.072;2023-07-02T01:22:20;96315.16;;;21.95;66.83
35878;BME280;21982;49.804;24.072;2023-07-02T01:24:45;96307.06;;;21.95;66.97
35878;BME280;21982;49.804;24.072;2023-07-02T01:27:15;96282.38;;;21.83;66.72
35878;BME280;21982;49.804;24.072;2023-07-02T01:29:41;96307.31;;;21.99;66.72
35878;BME280;21982;49.804;24.072;2023-07-02T01:32:07;96314.34;;;21.95;66.38
35878;BME280;21982;49.804;24.072;2023-07-02T01:34:33;96291.69;;;21.72;66.52
35878;BME280;21982;49.804;24.072;2023-07-02T01:36:59;96315.84;;;21.82;66.59
35878;BME280;21982;49.804;24.072;2023-07-02T01:39:25;96271.38;;;21.51;66.48
35878;BME280;21982;49.804;24.072;2023-07-02T01:41:52;96318.59;;;21.77;66.38
35878;BME280;21982;49.804;24.072;2023-07-02T01:44:18;96315.41;;;21.70;66.34
35878;BME280;21982;49.804;24.072;2023-07-02T01:46:45;96314.88;;;21.68;66.44
35878;BME280;21982;49.804;24.072;2023-07-02T01:49:19;96314.34;;;21.66;66.60
35878;BME280;21982;49.804;24.072;2023-07-02T01:51:54;96293.72;;;21.51;66.30
35878;BME280;21982;49.804;24.072;2023-07-02T01:54:25;96280.84;;;21.48;66.59
35878;BME280;21982;49.804;24.072;2023-07-02T01:56:54;96310.06;;;21.65;66.28
35878;BME280;21982;49.804;24.072;2023-07-02T01:59:20;96276.31;;;21.44;66.17
35878;BME280;21982;49.804;24.072;2023-07-02T02:01:46;96306.84;;;21.63;66.34
35878;BME280;21982;49.804;24.072;2023-07-02T02:04:12;96303.91;;;21.59;66.33
35878;BME280;21982;49.804;24.072;2023-07-02T02:06:39;96296.91;;;21.58;66.30
35878;BME280;21982;49.804;24.072;2023-07-02T02:09:05;96313.88;;;21.59;66.33
35878;BME280;21982;49.804;24.072;2023-07-02T02:11:31;96290.81;;;21.48;66.38
35878;BME280;21982;49.804;24.072;2023-07-02T02:13:58;96309.06;;;21.51;66.57
35878;BME280;21982;49.804;24.072;2023-07-02T02:16:24;96307.47;;;21.50;66.71
35878;BME280;21982;49.804;24.072;2023-07-02T02:18:49;96310.16;;;21.50;66.78
35878;BME280;21982;49.804;24.072;2023-07-02T02:21:19;96310.22;;;21.45;66.98
35878;BME280;21982;49.804;24.072;2023-07-02T02:23:45;96309.19;;;21.40;67.11
35878;BME280;21982;49.804;24.072;2023-07-02T02:26:10;96318.09;;;21.36;67.25
35878;BME280;21982;49.804;24.072;2023-07-02T02:28:36;96296.63;;;21.26;67.50
35878;BME280;21982;49.804;24.072;2023-07-02T02:31:01;96289.91;;;21.18;67.69
35878;BME280;21982;49.804;24.072;2023-07-02T02:33:27;96307.13;;;21.22;68.01
35878;BME280;21982;49.804;24.072;2023-07-02T02:35:52;96279.28;;;20.98;67.82
35878;BME280;21982;49.804;24.072;2023-07-02T02:38:18;96306.06;;;21.18;68.13
35878;BME280;21982;49.804;24.072;2023-07-02T02:40:43;96291.63;;;21.04;68.29
35878;BME280;21982;49.804;24.072;2023-07-02T02:43:09;96313.38;;;21.13;68.28
35878;BME280;21982;49.804;24.072;2023-07-02T02:45:34;96263.28;;;20.78;68.38
35878;BME280;21982;49.804;24.072;2023-07-02T02:47:59;96312.59;;;21.07;68.63
35878;BME280;21982;49.804;24.072;2023-07-02T02:50:25;96301.31;;;21.05;68.65
35878;BME280;21982;49.804;24.072;2023-07-02T02:52:50;96287.91;;;20.95;68.93
35878;BME280;21982;49.804;24.072;2023-07-02T02:55:15;96304.84;;;21.00;68.91
35878;BME280;21982;49.804;24.072;2023-07-02T02:57:41;96267.31;;;20.75;69.01
35878;BME280;21982;49.804;24.072;2023-07-02T03:00:08;96295.97;;;21.00;69.13
35878;BME280;21982;49.804;24.072;2023-07-02T03:02:34;96301.06;;;21.01;69.23
35878;BME280;21982;49.804;24.072;2023-07-02T03:05:01;96269.09;;;20.90;69.24
35878;BME280;21982;49.804;24.072;2023-07-02T03:07:31;96309.38;;;21.10;69.03
35878;BME280;21982;49.804;24.072;2023-07-02T03:09:57;96251.47;;;20.73;69.28
35878;BME280;21982;49.804;24.072;2023-07-02T03:12:22;96303.97;;;21.10;69.29
35878;BME280;21982;49.804;24.072;2023-07-02T03:14:48;96310.91;;;21.16;69.32
35878;BME280;21982;49.804;24.072;2023-07-02T03:17:18;96274.47;;;20.95;69.31
35878;BME280;21982;49.804;24.072;2023-07-02T03:19:44;96197.50;;;20.50;69.12
35878;BME280;21982;49.804;24.072;2023-07-02T03:22:09;96250.25;;;20.90;68.94
35878;BME280;21982;49.804;24.072;2023-07-02T03:24:35;96256.19;;;20.87;68.96
35878;BME280;21982;49.804;24.072;2023-07-02T03:27:00;96267.78;;;20.82;69.08
35878;BME280;21982;49.804;24.072;2023-07-02T03:29:26;96305.13;;;20.94;69.34
35878;BME280;21982;49.804;24.072;2023-07-02T03:31:51;96274.63;;;20.69;69.19
35878;BME280;21982;49.804;24.072;2023-07-02T03:34:16;96325.03;;;20.98;69.45
35878;BME280;21982;49.804;24.072;2023-07-02T03:36:43;96317.75;;;20.98;69.53
35878;BME280;21982;49.804;24.072;2023-07-02T03:39:11;96320.44;;;21.03;69.39
35878;BME280;21982;49.804;24.072;2023-07-02T03:41:36;96315.06;;;21.03;69.39
35878;BME280;21982;49.804;24.072;2023-07-02T03:44:02;96311.06;;;20.96;69.49
35878;BME280;21982;49.804;24.072;2023-07-02T03:46:27;96290.75;;;20.69;69.56
35878;BME280;21982;49.804;24.072;2023-07-02T03:48:52;96323.03;;;20.69;69.83
35878;BME280;21982;49.804;24.072;2023-07-02T03:51:18;96334.88;;;20.68;70.33
35878;BME280;21982;49.804;24.072;2023-07-02T03:53:43;96333.28;;;20.57;70.76
35878;BME280;21982;49.804;24.072;2023-07-02T03:56:09;96341.91;;;20.59;71.26
35878;BME280;21982;49.804;24.072;2023-07-02T03:58:34;96342.25;;;20.43;71.50
35878;BME280;21982;49.804;24.072;2023-07-02T04:01:00;96233.00;;;19.67;71.85
35878;BME280;21982;49.804;24.072;2023-07-02T04:03:25;96356.50;;;20.43;71.86
35878;BME280;21982;49.804;24.072;2023-07-02T04:05:51;96349.72;;;20.46;71.94
35878;BME280;21982;49.804;24.072;2023-07-02T04:08:16;96346.22;;;20.50;71.80
35878;BME280;21982;49.804;24.072;2023-07-02T04:10:44;96298.94;;;20.29;71.83
35878;BME280;21982;49.804;24.072;2023-07-02T04:13:10;96230.00;;;19.89;71.53
35878;BME280;21982;49.804;24.072;2023-07-02T04:15:38;96340.56;;;20.57;71.51
35878;BME280;21982;49.804;24.072;2023-07-02T04:18:03;96347.25;;;20.69;71.32
35878;BME280;21982;49.804;24.072;2023-07-02T04:20:29;96339.72;;;20.66;71.46
35878;BME280;21982;49.804;24.072;2023-07-02T04:22:54;96286.56;;;20.43;71.42
35878;BME280;21982;49.804;24.072;2023-07-02T04:25:21;96342.84;;;20.89;71.03
35878;BME280;21982;49.804;24.072;2023-07-02T04:27:47;96342.00;;;20.93;71.14
35878;BME280;21982;49.804;24.072;2023-07-02T04:30:13;96316.50;;;20.81;70.91
35878;BME280;21982;49.804;24.072;2023-07-02T04:32:40;96346.00;;;21.06;70.85
35878;BME280;21982;49.804;24.072;2023-07-02T04:35:10;96342.94;;;21.18;70.64
35878;BME280;21982;49.804;24.072;2023-07-02T04:37:36;96297.13;;;20.84;70.66
35878;BME280;21982;49.804;24.072;2023-07-02T04:40:03;96351.28;;;21.16;70.74
35878;BME280;21982;49.804;24.072;2023-07-02T04:42:38;96346.00;;;21.06;70.72
35878;BME280;21982;49.804;24.072;2023-07-02T04:45:05;96303.41;;;20.69;71.01
35878;BME280;21982;49.804;24.072;2023-07-02T04:47:31;96333.44;;;20.81;71.32
35878;BME280;21982;49.804;24.072;2023-07-02T04:49:57;96353.31;;;20.90;71.38
35878;BME280;21982;49.804;24.072;2023-07-02T04:52:22;96336.41;;;20.80;71.42
35878;BME280;21982;49.804;24.072;2023-07-02T04:54:49;96338.34;;;20.79;71.46
35878;BME280;21982;49.804;24.072;2023-07-02T04:57:15;96351.22;;;20.82;71.24
35878;BME280;21982;49.804;24.072;2023-07-02T04:59:43;96363.56;;;20.83;71.55
35878;BME280;21982;49.804;24.072;2023-07-02T05:02:09;96355.88;;;20.66;71.52
35878;BME280;21982;49.804;24.072;2023-07-02T05:04:35;96371.47;;;20.69;71.50
35878;BME280;21982;49.804;24.072;2023-07-02T05:07:00;96373.63;;;20.62;71.51
35878;BME280;21982;49.804;24.072;2023-07-02T05:09:26;96369.06;;;20.53;71.75
35878;BME280;21982;49.804;24.072;2023-07-02T05:11:51;96328.00;;;20.17;72.12
35878;BME280;21982;49.804;24.072;2023-07-02T05:14:16;96353.78;;;20.33;72.47
35878;BME280;21982;49.804;24.072;2023-07-02T05:16:42;96336.88;;;20.22;72.79
35878;BME280;21982;49.804;24.072;2023-07-02T05:19:07;96364.81;;;20.36;72.67
35878;BME280;21982;49.804;24.072;2023-07-02T05:21:33;96348.97;;;20.25;72.47
35878;BME280;21982;49.804;24.072;2023-07-02T05:23:58;96318.59;;;20.24;72.67
35878;BME280;21982;49.804;24.072;2023-07-02T05:26:23;96365.56;;;20.57;72.38
35878;BME280;21982;49.804;24.072;2023-07-02T05:28:49;96365.53;;;20.72;72.01
35878;BME280;21982;49.804;24.072;2023-07-02T05:31:14;96354.75;;;20.78;71.51
35878;BME280;21982;49.804;24.072;2023-07-02T05:33:39;96366.50;;;20.92;71.22
35878;BME280;21982;49.804;24.072;2023-07-02T05:36:05;96365.69;;;20.96;70.91
35878;BME280;21982;49.804;24.072;2023-07-02T05:38:30;96361.09;;;21.02;70.57
35878;BME280;21982;49.804;24.072;2023-07-02T05:40:56;96358.13;;;21.03;70.37
35878;BME280;21982;49.804;24.072;2023-07-02T05:43:21;96349.75;;;21.05;69.82
35878;BME280;21982;49.804;24.072;2023-07-02T05:45:46;96258.53;;;20.54;69.42
35878;BME280;21982;49.804;24.072;2023-07-02T05:48:12;96335.72;;;21.13;69.35
35878;BME280;21982;49.804;24.072;2023-07-02T05:50:37;96345.88;;;21.31;68.98
35878;BME280;21982;49.804;24.072;2023-07-02T05:53:03;96281.94;;;21.03;68.97
35878;BME280;21982;49.804;24.072;2023-07-02T05:55:28;96321.59;;;21.36;68.41
35878;BME280;21982;49.804;24.072;2023-07-02T05:57:53;96336.50;;;21.58;67.99
35878;BME280;21982;49.804;24.072;2023-07-02T06:00:19;96328.94;;;21.60;67.62
35878;BME280;21982;49.804;24.072;2023-07-02T06:02:46;96303.88;;;21.64;67.54
35878;BME280;21982;49.804;24.072;2023-07-02T06:05:12;96331.84;;;21.97;67.31
35878;BME280;21982;49.804;24.072;2023-07-02T06:07:37;96344.59;;;22.21;67.05
35878;BME280;21982;49.804;24.072;2023-07-02T06:10:03;96311.56;;;22.10;66.50
35878;BME280;21982;49.804;24.072;2023-07-02T06:12:28;96290.31;;;22.03;66.59
35878;BME280;21982;49.804;24.072;2023-07-02T06:14:53;96341.22;;;22.34;66.41
35878;BME280;21982;49.804;24.072;2023-07-02T06:17:19;96327.59;;;22.20;66.52
35878;BME280;21982;49.804;24.072;2023-07-02T06:19:46;96336.44;;;22.26;66.80
35878;BME280;21982;49.804;24.072;2023-07-02T06:22:12;96293.59;;;21.95;66.57
35878;BME280;21982;49.804;24.072;2023-07-02T06:24:37;96337.81;;;22.23;66.29
35878;BME280;21982;49.804;24.072;2023-07-02T06:27:03;96331.75;;;22.13;66.23
35878;BME280;21982;49.804;24.072;2023-07-02T06:29:28;96336.38;;;22.07;66.28
35878;BME280;21982;49.804;24.072;2023-07-02T06:31:54;96339.03;;;22.12;66.35
35878;BME280;21982;49.804;24.072;2023-07-02T06:34:19;96330.16;;;22.12;66.20
35878;BME280;21982;49.804;24.072;2023-07-02T06:36:45;96299.50;;;21.97;66.13
35878;BME280;21982;49.804;24.072;2023-07-02T06:39:10;96332.72;;;22.22;65.92
35878;BME280;21982;49.804;24.072;2023-07-02T06:41:36;96331.19;;;22.39;66.16
35878;BME280;21982;49.804;24.072;2023-07-02T06:44:02;96347.00;;;22.51;65.82
35878;BME280;21982;49.804;24.072;2023-07-02T06:46:28;96347.44;;;22.58;65.35
35878;BME280;21982;49.804;24.072;2023-07-02T06:48:55;96340.94;;;22.59;65.21
35878;BME280;21982;49.804;24.072;2023-07-02T06:51:20;96337.72;;;22.57;64.69
35878;BME280;21982;49.804;24.072;2023-07-02T06:53:47;96330.88;;;22.65;64.73
35878;BME280;21982;49.804;24.072;2023-07-02T06:56:12;96334.00;;;22.77;64.80
35878;BME280;21982;49.804;24.072;2023-07-02T06:58:41;96346.16;;;22.98;64.13
35878;BME280;21982;49.804;24.072;2023-07-02T07:01:07;96351.25;;;23.00;63.88
35878;BME280;21982;49.804;24.072;2023-07-02T07:03:36;96351.19;;;23.24;63.57
35878;BME280;21982;49.804;24.072;2023-07-02T07:06:02;96361.16;;;23.47;63.62
35878;BME280;21982;49.804;24.072;2023-07-02T07:08:29;96316.75;;;23.34;62.75
35878;BME280;21982;49.804;24.072;2023-07-02T07:10:56;96359.03;;;23.63;62.71
35878;BME280;21982;49.804;24.072;2023-07-02T07:13:21;96354.34;;;23.68;62.44
35878;BME280;21982;49.804;24.072;2023-07-02T07:15:47;96324.63;;;23.50;61.66
35878;BME280;21982;49.804;24.072;2023-07-02T07:18:12;96345.28;;;23.40;61.59
35878;BME280;21982;49.804;24.072;2023-07-02T07:20:39;96347.47;;;23.38;62.17
35878;BME280;21982;49.804;24.072;2023-07-02T07:23:06;96353.59;;;23.25;62.54
35878;BME280;21982;49.804;24.072;2023-07-02T07:25:31;96360.19;;;23.19;62.89
35878;BME280;21982;49.804;24.072;2023-07-02T07:27:58;96328.06;;;22.99;63.08
35878;BME280;21982;49.804;24.072;2023-07-02T07:30:24;96323.22;;;22.96;63.25
35878;BME280;21982;49.804;24.072;2023-07-02T07:32:50;96334.25;;;22.99;63.24
35878;BME280;21982;49.804;24.072;2023-07-02T07:35:16;96328.19;;;22.89;63.47
35878;BME280;21982;49.804;24.072;2023-07-02T07:37:43;96350.97;;;23.01;63.75
35878;BME280;21982;49.804;24.072;2023-07-02T07:40:09;96357.06;;;23.12;63.90
35878;BME280;21982;49.804;24.072;2023-07-02T07:42:36;96320.53;;;22.96;63.64
35878;BME280;21982;49.804;24.072;2023-07-02T07:45:03;96339.03;;;23.08;63.37
35878;BME280;21982;49.804;24.072;2023-07-02T07:47:28;96329.16;;;22.98;63.29
35878;BME280;21982;49.804;24.072;2023-07-02T07:49:54;96344.00;;;23.19;63.54
35878;BME280;21982;49.804;24.072;2023-07-02T07:52:21;96331.41;;;23.28;63.43
35878;BME280;21982;49.804;24.072;2023-07-02T07:54:46;96344.13;;;23.47;62.28
35878;BME280;21982;49.804;24.072;2023-07-02T07:57:12;96326.59;;;23.25;62.77
35878;BME280;21982;49.804;24.072;2023-07-02T07:59:37;96293.13;;;23.08;62.82
35878;BME280;21982;49.804;24.072;2023-07-02T08:02:03;96318.88;;;23.37;62.66
35878;BME280;21982;49.804;24.072;2023-07-02T08:04:28;96325.56;;;23.59;62.13
35878;BME280;21982;49.804;24.072;2023-07-02T08:06:54;96314.75;;;23.59;62.13
35878;BME280;21982;49.804;24.072;2023-07-02T08:09:20;96301.09;;;23.69;61.51
35878;BME280;21982;49.804;24.072;2023-07-02T08:11:46;96330.97;;;23.91;61.23
35878;BME280;21982;49.804;24.072;2023-07-02T08:14:12;96332.91;;;23.91;61.08
35878;BME280;21982;49.804;24.072;2023-07-02T08:16:38;96328.28;;;23.91;61.53
35878;BME280;21982;49.804;24.072;2023-07-02T08:19:03;96319.25;;;23.82;61.70
35878;BME280;21982;49.804;24.072;2023-07-02T08:21:28;96255.97;;;23.51;61.38
35878;BME280;21982;49.804;24.072;2023-07-02T08:23:54;96324.66;;;23.82;61.33
35878;BME280;21982;49.804;24.072;2023-07-02T08:26:19;96330.75;;;23.74;61.76
35878;BME280;21982;49.804;24.072;2023-07-02T08:28:44;96330.63;;;23.65;62.36
35878;BME280;21982;49.804;24.072;2023-07-02T08:31:10;96303.75;;;23.36;62.37
35878;BME280;21982;49.804;24.072;2023-07-02T08:33:35;96333.41;;;23.42;62.14
35878;BME280;21982;49.804;24.072;2023-07-02T08:36:00;96332.69;;;23.17;62.82
35878;BME280;21982;49.804;24.072;2023-07-02T08:38:26;96349.97;;;23.16;63.13
35878;BME280;21982;49.804;24.072;2023-07-02T08:40:52;96310.06;;;23.13;63.21
35878;BME280;21982;49.804;24.072;2023-07-02T08:43:18;96347.03;;;23.69;63.01
35878;BME280;21982;49.804;24.072;2023-07-02T08:45:43;96344.03;;;24.35;62.02
35878;BME280;21982;49.804;24.072;2023-07-02T08:48:13;96334.91;;;25.00;59.90
35878;BME280;21982;49.804;24.072;2023-07-02T08:50:38;96349.06;;;25.33;59.21
35878;BME280;21982;49.804;24.072;2023-07-02T08:53:04;96341.09;;;25.64;59.09
35878;BME280;21982;49.804;24.072;2023-07-02T08:55:30;96331.28;;;25.99;57.27
35878;BME280;21982;49.804;24.072;2023-07-02T08:57:56;96319.34;;;26.31;56.31
35878;BME280;21982;49.804;24.072;2023-07-02T09:00:25;96325.06;;;27.78;54.13
35878;BME280;21982;49.804;24.072;2023-07-02T09:02:50;96343.16;;;28.93;51.83
35878;BME280;21982;49.804;24.072;2023-07-02T09:05:15;96315.63;;;29.90;49.67
35878;BME280;21982;49.804;24.072;2023-07-02T09:07:48;96325.13;;;31.35;46.85
35878;BME280;21982;49.804;24.072;2023-07-02T09:13:03;96329.44;;;32.32;44.40
35878;BME280;21982;49.804;24.072;2023-07-02T09:15:38;96319.09;;;31.42;44.58
35878;BME280;21982;49.804;24.072;2023-07-02T09:18:23;96360.72;;;30.74;45.43
35878;BME280;21982;49.804;24.072;2023-07-02T09:20:51;96352.00;;;30.03;46.36
35878;BME280;21982;49.804;24.072;2023-07-02T09:23:16;96362.69;;;29.75;46.47
35878;BME280;21982;49.804;24.072;2023-07-02T09:25:42;96364.00;;;29.48;47.13
35878;BME280;21982;49.804;24.072;2023-07-02T09:28:19;96361.13;;;30.07;46.62
35878;BME280;21982;49.804;24.072;2023-07-02T09:30:57;96354.38;;;29.83;46.33
35878;BME280;21982;49.804;24.072;2023-07-02T09:33:27;96356.84;;;29.34;47.03
35878;BME280;21982;49.804;24.072;2023-07-02T09:35:52;96340.22;;;29.27;47.15
35878;BME280;21982;49.804;24.072;2023-07-02T09:38:19;96321.66;;;29.21;47.28
35878;BME280;21982;49.804;24.072;2023-07-02T09:40:50;96356.03;;;29.96;46.85
35878;BME280;21982;49.804;24.072;2023-07-02T09:43:16;96355.47;;;30.69;45.69
35878;BME280;21982;49.804;24.072;2023-07-02T09:45:43;96337.16;;;31.18;43.71
35878;BME280;21982;49.804;24.072;2023-07-02T09:48:15;96357.31;;;31.78;43.15
35878;BME280;21982;49.804;24.072;2023-07-02T09:50:45;96328.94;;;31.71;42.45
35878;BME280;21982;49.804;24.072;2023-07-02T09:53:11;96355.44;;;31.42;42.98
35878;BME280;21982;49.804;24.072;2023-07-02T09:55:38;96298.16;;;31.21;43.02
35878;BME280;21982;49.804;24.072;2023-07-02T09:58:04;96308.34;;;31.49;43.14
35878;BME280;21982;49.804;24.072;2023-07-02T10:00:30;96348.78;;;31.95;42.45
35878;BME280;21982;49.804;24.072;2023-07-02T10:02:56;96348.06;;;32.86;41.54
35878;BME280;21982;49.804;24.072;2023-07-02T10:05:29;96331.50;;;33.49;40.07
35878;BME280;21982;49.804;24.072;2023-07-02T10:07:59;96336.44;;;33.97;39.01
35878;BME280;21982;49.804;24.072;2023-07-02T10:10:36;96350.09;;;34.78;38.08
35878;BME280;21982;49.804;24.072;2023-07-02T10:13:01;96335.78;;;35.75;36.24
35878;BME280;21982;49.804;24.072;2023-07-02T10:15:28;96346.88;;;36.12;35.45
35878;BME280;21982;49.804;24.072;2023-07-02T10:17:58;96334.72;;;36.16;35.50
35878;BME280;21982;49.804;24.072;2023-07-02T10:20:40;96322.13;;;35.52;36.34
35878;BME280;21982;49.804;24.072;2023-07-02T10:23:08;96320.78;;;34.86;36.38
35878;BME280;21982;49.804;24.072;2023-07-02T10:25:38;96331.16;;;34.50;36.84
35878;BME280;21982;49.804;24.072;2023-07-02T10:28:32;96293.34;;;33.63;37.61
35878;BME280;21982;49.804;24.072;2023-07-02T10:30:59;96319.63;;;33.64;38.21
35878;BME280;21982;49.804;24.072;2023-07-02T10:33:25;96319.88;;;33.75;37.80
35878;BME280;21982;49.804;24.072;2023-07-02T10:35:50;96309.28;;;34.35;37.53
35878;BME280;21982;49.804;24.072;2023-07-02T10:38:26;96316.53;;;35.18;36.49
35878;BME280;21982;49.804;24.072;2023-07-02T10:40:56;96271.91;;;35.62;36.11
35878;BME280;21982;49.804;24.072;2023-07-02T10:43:29;96310.50;;;35.96;35.90
35878;BME280;21982;49.804;24.072;2023-07-02T10:45:54;96286.97;;;36.02;34.92
35878;BME280;21982;49.804;24.072;2023-07-02T10:48:20;96294.38;;;35.98;34.94
35878;BME280;21982;49.804;24.072;2023-07-02T10:50:46;96297.88;;;36.28;34.95
35878;BME280;21982;49.804;24.072;2023-07-02T10:53:18;96294.44;;;36.86;34.47
35878;BME280;21982;49.804;24.072;2023-07-02T10:55:44;96281.72;;;36.74;33.67
35878;BME280;21982;49.804;24.072;2023-07-02T10:58:11;96285.16;;;36.61;33.43
35878;BME280;21982;49.804;24.072;2023-07-02T11:00:47;96288.53;;;36.43;33.65
35878;BME280;21982;49.804;24.072;2023-07-02T11:03:17;96274.25;;;36.27;34.27
35878;BME280;21982;49.804;24.072;2023-07-02T11:05:43;96284.59;;;35.40;34.87
35878;BME280;21982;49.804;24.072;2023-07-02T11:08:09;96285.84;;;34.67;35.71
35878;BME280;21982;49.804;24.072;2023-07-02T11:10:35;96279.25;;;34.03;36.74
35878;BME280;21982;49.804;24.072;2023-07-02T11:15:39;96283.38;;;33.36;37.24
35878;BME280;21982;49.804;24.072;2023-07-02T11:18:17;96286.47;;;32.99;37.18
35878;BME280;21982;49.804;24.072;2023-07-02T11:20:44;96259.06;;;32.05;38.41
35878;BME280;21982;49.804;24.072;2023-07-02T11:23:25;96245.31;;;31.17;39.02
35878;BME280;21982;49.804;24.072;2023-07-02T11:25:59;96257.88;;;30.57;40.48
35878;BME280;21982;49.804;24.072;2023-07-02T11:28:25;96280.91;;;29.99;41.56
35878;BME280;21982;49.804;24.072;2023-07-02T11:30:51;96269.56;;;29.43;42.35
35878;BME280;21982;49.804;24.072;2023-07-02T11:33:16;96262.38;;;28.88;43.94
35878;BME280;21982;49.804;24.072;2023-07-02T11:35:42;96268.53;;;28.47;44.80
35878;BME280;21982;49.804;24.072;2023-07-02T11:38:09;96243.56;;;27.98;45.21
35878;BME280;21982;49.804;24.072;2023-07-02T11:40:36;96256.56;;;27.76;46.12
35878;BME280;21982;49.804;24.072;2023-07-02T11:43:02;96279.03;;;27.64;46.78
35878;BME280;21982;49.804;24.072;2023-07-02T11:45:27;96288.25;;;27.46;47.29
35878;BME280;21982;49.804;24.072;2023-07-02T11:47:54;96280.59;;;27.30;47.72
35878;BME280;21982;49.804;24.072;2023-07-02T11:50:19;96277.53;;;27.41;47.54
35878;BME280;21982;49.804;24.072;2023-07-02T11:52:44;96230.38;;;27.45;47.48
35878;BME280;21982;49.804;24.072;2023-07-02T11:55:10;96273.47;;;28.83;45.84
35878;BME280;21982;49.804;24.072;2023-07-02T11:57:35;96259.06;;;29.99;42.63
35878;BME280;21982;49.804;24.072;2023-07-02T12:00:00;96285.19;;;31.06;40.59
35878;BME280;21982;49.804;24.072;2023-07-02T12:02:26;96289.09;;;31.85;39.17
35878;BME280;21982;49.804;24.072;2023-07-02T12:04:51;96298.88;;;32.30;37.28
35878;BME280;21982;49.804;24.072;2023-07-02T12:07:16;96293.84;;;32.63;36.92
35878;BME280;21982;49.804;24.072;2023-07-02T12:09:42;96302.22;;;33.02;36.56
35878;BME280;21982;49.804;24.072;2023-07-02T12:12:07;96291.31;;;33.06;36.99
35878;BME280;21982;49.804;24.072;2023-07-02T12:14:33;96312.44;;;32.86;37.83
35878;BME280;21982;49.804;24.072;2023-07-02T12:16:59;96280.69;;;32.38;38.81
35878;BME280;21982;49.804;24.072;2023-07-02T12:19:25;96303.47;;;32.42;40.13
35878;BME280;21982;49.804;24.072;2023-07-02T12:21:50;96305.13;;;32.15;39.60
35878;BME280;21982;49.804;24.072;2023-07-02T12:24:15;96255.84;;;31.71;39.31
35878;BME280;21982;49.804;24.072;2023-07-02T12:26:42;96298.25;;;31.65;39.43
35878;BME280;21982;49.804;24.072;2023-07-02T12:29:08;96296.97;;;32.03;39.01
35878;BME280;21982;49.804;24.072;2023-07-02T12:31:35;96293.31;;;31.83;38.94
35878;BME280;21982;49.804;24.072;2023-07-02T12:34:02;96273.81;;;31.16;38.86
35878;BME280;21982;49.804;24.072;2023-07-02T12:36:28;96290.84;;;31.25;39.00
35878;BME280;21982;49.804;24.072;2023-07-02T12:38:53;96254.88;;;31.11;39.18
35878;BME280;21982;49.804;24.072;2023-07-02T12:41:19;96275.66;;;31.40;38.71
35878;BME280;21982;49.804;24.072;2023-07-02T12:43:44;96251.56;;;31.18;38.99
35878;BME280;21982;49.804;24.072;2023-07-02T12:46:09;96257.66;;;30.75;39.28
35878;BME280;21982;49.804;24.072;2023-07-02T12:48:35;96288.06;;;30.61;40.81
35878;BME280;21982;49.804;24.072;2023-07-02T12:51:00;96287.03;;;30.65;40.57
35878;BME280;21982;49.804;24.072;2023-07-02T12:53:26;96293.06;;;30.83;40.19